Gaines, Michigan
Current Conditions -  °F | °C
As of 7:53 AM on Tuesday 21 Oct 2014 (Local Time) from KFNT Reporting Station
Light Rain Light Rain  
Wind Chill: 42°   Ceiling: 700
Heat Index: 47°   Visibility: 4mi
Dew Point: 44°   Wind: 10mph
Humidity: 90%   Direction: 350°N
Pressure: 29.99"   Gusts: NA
Location:  42.87°N, 83.91°W
Report Text: KFNT 211153Z 35009KT 4SM -RA BR BKN007 OVC014 08/07 A2999 RMK AO2 RAB19 CIG 005V011 SLP159 P0002 60006 70018 T00830067 10100 20083 51010
Loading
Personal Weather Stations






























Interactive Weather Map
Tropical Storm Tracking
New forecast layout! Learn more

10-Day Weather Forecast

Advertisements
Track Severe Weather on mobile